Ripley, Michigan
Current Conditions -  °F | °C
As of 12:39 PM on Wednesday 26 Nov 2014 (Local Time) from KCMX Reporting Station
Light Snow Light Snow  
Wind Chill: 12°   Ceiling: 2600
Heat Index: 20°   Visibility: 2.5mi
Dew Point: 15°   Wind: 6mph
Humidity: 81%   Direction: 190°S
Pressure: 30.09"   Gusts: NA
Location:  47.1715°N, 88.5503°W
Report Text: KCMX 261739Z AUTO 19005KT 2 1/2SM -SN SCT011 OVC026 M07/M09 A3009 RMK AO2 P0000 T10671094
Loading
Personal Weather Stations






























Interactive Weather Map New forecast layout! Learn more

10-Day Weather Forecast

Advertisements
Track Severe Weather on mobile